Latest Weather Observations for Centre Island

IDD60801

Issued at 2:01 pm CST Thursday 3 September 2015 (issued every 30 minutes, with the page automatically refreshed every 10 minutes)

About weather observations | Map of weather stations | Latest weather observations for NT | Other Formats
Station Details ID: 014703 Name: CENTRE ISLAND Lat: -15.74 Lon: 136.82 Height: 12.2 m
Data from the previous 72 hours. | See also: Recent months at Centre Island
Date/Time
CST
Temp
°C
App
Temp
°C
Dew
Point
Rel
Hum
%
Delta-T
°C
Wind Press
QNH
hPa
Press
MSL
hPa
Rain
since 9 am
mm
Dir
 
Spd
km/h
Gust
km/h
Spd
kts
Gust
kts
03/02:00pm 28.6 28.0 21.9 67 4.5 NE 28 35 15 19 1015.6 1015.6 0.0
03/01:30pm 30.4 31.3 20.0 53 6.8 NE 15 22 8 12 1015.8 1015.8 0.0
03/01:00pm 29.3 30.2 18.4 51 7.0 ENE 11 15 6 8 1016.2 1016.2 0.0
03/12:30pm 29.4 31.6 21.1 61 5.5 ENE 11 15 6 8 1016.6 1016.6 0.0
03/12:00pm 27.9 30.0 20.2 63 5.0 E 9 13 5 7 1017.0 1017.0 0.0
03/11:30am 28.3 31.0 20.6 63 5.1 SSE 7 11 4 6 1017.3 1017.3 0.0
03/11:00am 27.8 30.1 20.6 65 4.7 S 9 13 5 7 1017.8 1017.8 0.0
03/10:30am 27.3 29.2 21.3 69 4.0 S 13 15 7 8 1018.2 1018.2 0.0
03/10:00am 26.8 28.4 21.5 72 3.5 S 15 19 8 10 1018.5 1018.5 0.0
03/09:30am 26.7 28.3 22.1 76 3.1 S 17 20 9 11 1018.6 1018.6 0.0
03/09:00am 25.5 26.7 22.2 82 2.2 SSE 19 24 10 13 1018.5 1018.5 0.2
03/08:30am 25.1 26.8 21.6 81 2.3 SSE 15 17 8 9 1018.2 1018.2 0.2
03/08:00am 24.6 26.5 22.1 86 1.7 SSE 15 17 8 9 1017.7 1017.7 0.2
03/07:30am 23.9 26.2 22.0 89 1.3 SSE 13 15 7 8 1017.5 1017.5 0.2
03/07:00am 23.6 25.7 21.7 89 1.3 SSE 13 15 7 8 1017.0 1017.0 0.2
03/06:30am 23.6 25.8 21.9 90 1.1 S 13 17 7 9 1016.5 1016.5 0.2
03/06:00am 23.8 26.9 22.2 91 1.1 SW 9 13 5 7 1015.9 1015.9 0.2
03/05:30am 23.8 26.9 22.1 90 1.1 SSW 9 13 5 7 1015.6 1015.6 0.2
03/05:00am 23.8 27.0 22.4 92 0.9 WNW 9 11 5 6 1015.3 1015.3 0.2
03/04:30am 23.8 27.1 21.9 89 1.3 WNW 7 9 4 5 1015.0 1015.0 0.2
03/04:00am 24.0 27.2 22.3 90 1.1 WSW 9 11 5 6 1014.9 1014.9 0.2
03/03:30am 24.0 27.3 22.6 92 0.9 WNW 9 13 5 7 1014.8 1014.8 0.2
03/03:00am 23.7 27.3 22.1 91 1.1 N 6 7 3 4 1014.5 1014.5 0.2
03/02:30am 23.8 26.5 22.2 91 1.1 N 11 13 6 7 1014.1 1014.1 0.2
03/02:00am 23.9 25.9 22.3 91 1.1 N 15 20 8 11 1014.1 1014.1 0.2
03/01:30am 23.8 25.8 22.2 91 1.1 N 15 20 8 11 1014.4 1014.4 0.2
03/01:00am 23.8 26.2 22.2 91 1.1 N 13 19 7 10 1014.5 1014.5 0.2
03/12:30am 24.0 25.7 22.3 90 1.1 N 17 22 9 12 1014.6 1014.6 0.2
03/12:00am 24.2 25.4 22.5 90 1.1 NNE 20 28 11 15 1014.5 1014.5 0.2
 
Date/Time
CST
Temp
°C
App
Temp
°C
Dew
Point
Rel
Hum
%
Delta-T
°C
Wind Press
QNH
hPa
Press
MSL
hPa
Rain
since 9 am
mm
Dir
 
Spd
km/h
Gust
km/h
Spd
kts
Gust
kts
02/11:30pm 24.1 24.4 22.2 89 1.3 NNE 24 30 13 16 1014.4 1014.4 0.2
02/11:00pm 24.1 25.0 22.0 88 1.4 NNE 20 26 11 14 1014.9 1014.9 0.2
02/10:30pm 24.3 24.8 22.0 87 1.5 NNE 22 30 12 16 1015.1 1015.1 0.2
02/10:00pm 24.2 24.7 21.9 87 1.5 NNE 22 30 12 16 1015.0 1015.0 0.2
02/09:30pm 24.3 24.8 22.0 87 1.5 NNE 22 30 12 16 1015.0 1015.0 0.2
02/09:00pm 24.3 24.4 21.8 86 1.7 NNE 24 32 13 17 1014.7 1014.7 0.2
02/08:30pm 24.5 23.7 20.8 80 2.4 NNE 26 35 14 19 1014.5 1014.5 0.2
02/08:00pm 24.6 24.1 20.7 79 2.6 NNE 24 30 13 16 1014.2 1014.2 0.2
02/07:30pm 24.8 25.2 20.9 79 2.6 NNE 20 26 11 14 1014.0 1014.0 0.2
02/07:00pm 25.3 26.3 21.0 77 2.8 NNE 17 22 9 12 1013.7 1013.7 0.2
02/06:30pm 25.6 26.3 18.0 63 4.8 N 11 15 6 8 1013.5 1013.5 0.2
02/06:00pm 26.1 27.1 20.2 70 3.8 NE 15 20 8 11 1013.3 1013.3 0.2
02/05:30pm 28.2 28.3 18.3 55 6.3 NNE 15 20 8 11 1013.1 1013.1 0.2
02/05:00pm 30.2 29.0 13.9 37 9.8 NNW 13 20 7 11 1013.1 1013.1 0.2
02/04:30pm 30.2 28.7 13.0 34 10.2 N 13 20 7 11 1012.9 1012.9 0.2
02/04:00pm 30.1 28.0 14.6 39 9.4 N 19 26 10 14 1012.8 1012.8 0.2
02/03:30pm 30.4 27.6 13.2 35 10.3 NNE 20 26 11 14 1012.7 1012.7 0.2
02/03:00pm 30.9 27.5 13.7 35 10.4 NNE 24 30 13 16 1012.7 1012.7 0.2
02/02:30pm 31.6 28.9 13.4 33 10.9 N 20 26 11 14 1013.1 1013.1 0.2
02/02:00pm 32.5 29.9 13.2 31 11.6 NNW 19 28 10 15 1013.4 1013.4 0.2
02/01:30pm 32.1 29.7 14.3 34 10.9 NNW 20 32 11 17 1013.9 1013.9 0.2
02/01:00pm 31.5 29.5 15.5 38 9.9 NNW 20 28 11 15 1014.4 1014.4 0.2
02/12:30pm 30.5 29.6 18.2 47 7.9 NNW 20 32 11 17 1014.8 1014.8 0.2
02/12:00pm 30.9 28.3 14.9 37 9.8 N 22 32 12 17 1015.3 1015.3 0.2
02/11:30am 31.0 28.5 14.2 36 10.2 NNW 20 28 11 15 1015.7 1015.7 0.2
02/11:00am 30.5 29.1 16.5 43 8.8 NNW 19 28 10 15 1016.2 1016.2 0.2
02/10:30am 30.5 29.9 17.6 46 8.2 NNW 17 26 9 14 1016.5 1016.5 0.2
02/10:00am 29.4 29.2 17.6 49 7.5 NW 15 20 8 11 1016.7 1016.7 0.2
02/09:30am 28.0 27.2 18.1 55 6.3 NW 19 26 10 14 1016.7 1016.7 0.0
02/09:00am 26.4 26.7 20.7 71 3.7 NW 20 30 11 16 1016.6 1016.6 0.0
02/08:30am 26.0 28.1 21.7 77 2.9 NNW 13 17 7 9 1016.0 1016.0 0.0
02/08:00am 24.5 27.5 21.2 82 2.2 NW 7 11 4 6 1015.8 1015.8 0.0
02/07:30am 22.9 25.8 21.0 89 1.2 NNW 7 9 4 5 1015.5 1015.5 0.0
02/07:00am 21.7 24.5 20.5 93 0.8 NW 6 7 3 4 1015.0 1015.0 0.0
02/06:30am 21.1 23.3 19.7 92 0.9 NNW 7 7 4 4 1014.6 1014.6 0.0
02/06:00am 21.6 23.7 20.2 92 0.9 NNW 9 13 5 7 1014.1 1014.1 0.0
02/05:30am 21.4 23.0 19.9 91 1.0 NNW 11 13 6 7 1013.9 1013.9 0.0
02/05:00am 21.6 23.5 19.7 89 1.2 N 9 11 5 6 1013.6 1013.6 0.0
02/04:30am 21.7 23.0 19.4 87 1.5 N 11 13 6 7 1013.2 1013.2 0.0
02/04:00am 22.0 24.2 19.5 86 1.6 N 7 11 4 6 1013.1 1013.1 0.0
02/03:30am 22.4 23.8 19.6 84 1.8 N 11 15 6 8 1013.1 1013.1 0.0
02/03:00am 22.7 24.3 19.9 84 1.8 NNE 11 15 6 8 1013.1 1013.1 0.0
02/02:30am 23.0 23.9 20.1 84 1.9 NNE 15 19 8 10 1013.3 1013.3 0.0
02/02:00am 23.0 24.0 20.3 85 1.7 NNE 15 20 8 11 1013.3 1013.3 0.0
02/01:30am 23.0 23.6 20.3 85 1.7 NNE 17 20 9 11 1013.4 1013.4 0.0
02/01:00am 22.9 24.0 20.4 86 1.6 NNE 15 19 8 10 1013.6 1013.6 0.0
02/12:30am 22.9 24.4 20.6 87 1.5 N 13 19 7 10 1013.7 1013.7 0.0
02/12:00am 23.0 24.2 20.7 87 1.5 N 15 20 8 11 1013.9 1013.9 0.0
 
Date/Time
CST
Temp
°C
App
Temp
°C
Dew
Point
Rel
Hum
%
Delta-T
°C
Wind Press
QNH
hPa
Press
MSL
hPa
Rain
since 9 am
mm
Dir
 
Spd
km/h
Gust
km/h
Spd
kts
Gust
kts
01/11:30pm 23.1 24.4 20.8 87 1.5 N 15 20 8 11 1014.0 1014.0 0.0
01/11:00pm 23.2 24.9 20.9 87 1.5 N 13 17 7 9 1013.8 1013.8 0.0
01/10:30pm 23.2 24.2 20.3 84 1.9 N 15 20 8 11 1013.8 1013.8 0.0
01/10:00pm 23.4 24.3 20.1 82 2.1 N 15 20 8 11 1013.8 1013.8 0.0
01/09:30pm 23.6 24.4 19.9 80 2.4 NNE 15 20 8 11 1013.7 1013.7 0.0
01/09:00pm 23.6 24.6 19.5 78 2.6 N 13 17 7 9 1013.6 1013.6 0.0
01/08:30pm 24.0 24.3 19.5 76 2.9 N 17 20 9 11 1013.3 1013.3 0.0
01/08:00pm 24.2 24.3 19.1 73 3.3 NNE 17 19 9 10 1013.1 1013.1 0.0
01/07:30pm 24.5 24.0 17.7 66 4.3 NNE 17 20 9 11 1012.6 1012.6 0.0
01/07:00pm 24.7 24.0 16.4 60 5.1 NNE 15 20 8 11 1012.3 1012.3 0.0
01/06:30pm 24.9 24.4 17.9 65 4.4 NNE 17 22 9 12 1012.0 1012.0 0.0
01/06:00pm 25.5 24.2 16.9 59 5.3 NNE 19 24 10 13 1012.0 1012.0 0.0
01/05:30pm 26.1 24.4 17.2 58 5.6 NNE 22 30 12 16 1011.9 1011.9 0.0
01/05:00pm 27.4 26.1 17.3 54 6.3 NNE 20 26 11 14 1011.7 1011.7 0.0
01/04:30pm 28.1 27.1 16.7 50 7.1 NNE 17 22 9 12 1011.7 1011.7 0.0
01/04:00pm 28.6 27.5 17.2 50 7.2 N 19 24 10 13 1011.7 1011.7 0.0
01/03:30pm 28.7 27.7 17.9 52 6.9 NNE 20 26 11 14 1011.8 1011.8 0.0
01/03:00pm 28.8 26.5 16.7 48 7.6 NNE 24 32 13 17 1012.0 1012.0 0.0
01/02:30pm 29.4 28.0 17.9 50 7.3 NNE 22 32 12 17 1012.3 1012.3 0.0
01/02:00pm 30.1 28.3 16.9 45 8.3 NNE 22 32 12 17 1012.8 1012.8 0.0
01/01:30pm 30.7 29.2 14.3 36 10.0 NE 15 20 8 11 1013.2 1013.2 0.0
01/01:00pm 29.6 29.1 15.0 41 8.9 NE 11 15 6 8 1013.5 1013.5 0.0
01/12:30pm 29.3 29.9 16.8 47 7.8 NE 9 13 5 7 1014.0 1014.0 0.0
01/12:00pm 28.8 29.4 16.7 48 7.6 ENE 9 13 5 7 1014.3 1014.3 0.0
01/11:30am 27.6 29.0 18.6 58 5.8 ESE 9 11 5 6 1014.8 1014.8 0.0
01/11:00am 26.1 27.6 19.0 65 4.6 SSE 9 11 5 6 1015.3 1015.3 0.0
01/10:30am 25.0 26.5 18.0 65 4.4 SSE 7 11 4 6 1015.6 1015.6 0.0
01/10:00am 24.6 26.2 18.3 68 4.0 SSE 7 11 4 6 1015.9 1015.9 0.0
01/09:30am 24.2 25.4 18.2 69 3.8 SSE 9 11 5 6 1015.8 1015.8 0.0
01/09:00am 24.4 25.8 18.6 70 3.7 SE 9 9 5 5 1015.6 1015.6 0.0
01/08:30am 24.0 25.2 19.1 74 3.1 ESE 11 13 6 7 1015.4 1015.4 0.0
01/08:00am 23.4 24.2 19.1 77 2.7 ESE 13 17 7 9 1015.1 1015.1 0.0
01/07:30am 22.2 23.0 19.0 82 2.0 SE 13 15 7 8 1014.9 1014.9 0.0
01/07:00am 21.4 21.9 19.3 88 1.3 SSE 15 17 8 9 1014.7 1014.7 0.0
01/06:30am 21.1 21.2 19.2 89 1.2 SE 17 20 9 11 1014.5 1014.5 0.0
01/06:00am 21.1 20.9 19.4 90 1.1 SE 19 22 10 12 1014.1 1014.1 0.0
01/05:30am 21.5 21.5 19.8 90 1.1 SE 19 20 10 11 1013.8 1013.8 0.0
01/05:00am 22.1 23.5 20.4 90 1.1 ESE 13 15 7 8 1013.4 1013.4 0.0
01/04:30am 21.2 23.9 19.5 90 1.1 ENE 4 9 2 5 1013.3 1013.3 0.0
01/04:00am 21.4 23.7 19.9 91 1.0 ENE 7 9 4 5 1013.2 1013.2 0.0
01/03:30am 21.6 23.7 20.1 91 1.0 ESE 9 9 5 5 1013.4 1013.4 0.0
01/03:00am 22.0 24.2 20.5 91 1.0 SSE 9 11 5 6 1013.5 1013.5 0.0
01/02:30am 21.6 23.6 19.9 90 1.1 ESE 9 11 5 6 1013.7 1013.7 0.0
01/02:00am 21.2 23.6 19.7 91 1.0 N 6 7 3 4 1013.8 1013.8 0.0
01/01:30am 20.7 24.0 19.2 91 0.9 CALM 0 0 0 0 1014.0 1014.0 0.0
01/01:00am 20.9 24.3 19.4 91 1.0 CALM 0 0 0 0 1014.3 1014.3 0.0
01/12:30am 20.8 24.0 18.9 89 1.2 CALM 0 0 0 0 1014.4 1014.4 0.0
01/12:00am 20.6 22.4 18.2 86 1.5 NNW 6 6 3 3 1014.5 1014.5 0.0
 
Date/Time
CST
Temp
°C
App
Temp
°C
Dew
Point
Rel
Hum
%
Delta-T
°C
Wind Press
QNH
hPa
Press
MSL
hPa
Rain
since 9 am
mm
Dir
 
Spd
km/h
Gust
km/h
Spd
kts
Gust
kts
31/11:30pm 20.9 22.3 17.9 83 1.9 NNW 7 9 4 5 1014.6 1014.6 0.0
31/11:00pm 21.6 23.2 18.2 81 2.1 NNW 7 9 4 5 1014.6 1014.6 0.0
31/10:30pm 23.5 24.5 19.4 78 2.6 NNE 13 17 7 9 1014.5 1014.5 0.0
31/10:00pm 23.7 24.1 19.0 75 3.0 NNE 15 19 8 10 1014.5 1014.5 0.0
31/09:30pm 23.9 24.3 19.0 74 3.1 NNE 15 19 8 10 1014.4 1014.4 0.0
31/09:00pm 23.9 23.5 18.1 70 3.6 NE 17 20 9 11 1014.2 1014.2 0.0
31/08:30pm 24.0 23.6 18.0 69 3.8 NE 17 19 9 10 1014.1 1014.1 0.0
31/08:00pm 24.1 23.5 17.6 67 4.0 NE 17 20 9 11 1013.8 1013.8 0.0
31/07:30pm 24.2 23.7 17.0 64 4.4 NE 15 20 8 11 1013.5 1013.5 0.0
31/07:00pm 24.7 23.9 17.2 63 4.7 NE 17 20 9 11 1013.4 1013.4 0.0
31/06:30pm 24.8 24.4 18.0 66 4.3 NNE 17 20 9 11 1013.2 1013.2 0.0
31/06:00pm 25.3 24.7 17.5 62 4.9 NNE 17 20 9 11 1013.1 1013.1 0.0
31/05:30pm 26.1 25.1 17.5 59 5.4 NNE 19 24 10 13 1013.0 1013.0 0.0
31/05:00pm 26.8 25.5 17.3 56 5.9 NNE 20 26 11 14 1012.7 1012.7 0.0
31/04:30pm 27.3 25.9 18.0 56 5.9 NNE 22 30 12 16 1012.8 1012.8 0.0
31/04:00pm 28.1 27.1 17.6 53 6.6 NNE 19 28 10 15 1012.8 1012.8 0.0
31/03:30pm 28.2 27.1 17.4 52 6.8 NE 19 24 10 13 1013.0 1013.0 0.0
31/03:00pm 29.1 26.9 16.0 45 8.1 ENE 22 28 12 15 1013.5 1013.5 0.0
31/02:30pm 29.8 27.2 15.9 43 8.6 E 24 30 13 16 1013.8 1013.8 0.0

Other Formats:

Comma delimited format used in spreadsheet applications
http://www.bom.gov.au/fwo/IDD60801/IDD60801.94248.axf

JavaScript Object Notation format (JSON) in row-major order
http://www.bom.gov.au/fwo/IDD60801/IDD60801.94248.json